sensor_id;sensor_type;location;lat;lon;timestamp;pressure;altitude;pressure_sealevel;temperature;humidity
9439;BME280;5176;42.622;25.386;2023-04-20T00:02:17;96765.38;;;11.64;100.00
9439;BME280;5176;42.622;25.386;2023-04-20T00:04:47;96766.41;;;11.61;100.00
9439;BME280;5176;42.622;25.386;2023-04-20T00:07:16;96764.88;;;11.59;100.00
9439;BME280;5176;42.622;25.386;2023-04-20T00:09:45;96738.91;;;11.43;100.00
9439;BME280;5176;42.622;25.386;2023-04-20T00:12:14;96752.06;;;11.54;100.00
9439;BME280;5176;42.622;25.386;2023-04-20T00:14:43;96744.53;;;11.50;100.00
9439;BME280;5176;42.622;25.386;2023-04-20T00:17:13;96737.28;;;11.53;100.00
9439;BME280;5176;42.622;25.386;2023-04-20T00:19:42;96737.16;;;11.55;100.00
9439;BME280;5176;42.622;25.386;2023-04-20T00:22:11;96738.75;;;11.57;100.00
9439;BME280;5176;42.622;25.386;2023-04-20T00:24:39;96733.59;;;11.56;100.00
9439;BME280;5176;42.622;25.386;2023-04-20T00:27:08;96728.56;;;11.53;100.00
9439;BME280;5176;42.622;25.386;2023-04-20T00:29:37;96726.44;;;11.58;100.00
9439;BME280;5176;42.622;25.386;2023-04-20T00:32:06;96718.56;;;11.58;100.00
9439;BME280;5176;42.622;25.386;2023-04-20T00:34:37;96718.56;;;11.58;100.00
9439;BME280;5176;42.622;25.386;2023-04-20T00:37:05;96721.19;;;11.58;100.00
9439;BME280;5176;42.622;25.386;2023-04-20T00:39:34;96721.28;;;11.56;100.00
9439;BME280;5176;42.622;25.386;2023-04-20T00:42:03;96719.28;;;11.60;100.00
9439;BME280;5176;42.622;25.386;2023-04-20T00:44:32;96717.50;;;11.60;100.00
9439;BME280;5176;42.622;25.386;2023-04-20T00:47:01;96712.50;;;11.57;100.00
9439;BME280;5176;42.622;25.386;2023-04-20T00:49:30;96719.03;;;11.52;100.00
9439;BME280;5176;42.622;25.386;2023-04-20T00:52:01;96714.97;;;11.48;100.00
9439;BME280;5176;42.622;25.386;2023-04-20T00:54:31;96728.41;;;11.43;100.00
9439;BME280;5176;42.622;25.386;2023-04-20T00:57:00;96728.31;;;11.44;100.00
9439;BME280;5176;42.622;25.386;2023-04-20T00:59:28;96729.63;;;11.39;100.00
9439;BME280;5176;42.622;25.386;2023-04-20T01:01:57;96731.75;;;11.34;100.00
9439;BME280;5176;42.622;25.386;2023-04-20T01:04:26;96733.78;;;11.30;100.00
9439;BME280;5176;42.622;25.386;2023-04-20T01:06:55;96728.88;;;11.26;100.00
9439;BME280;5176;42.622;25.386;2023-04-20T01:09:25;96729.53;;;11.16;100.00
9439;BME280;5176;42.622;25.386;2023-04-20T01:11:54;96724.66;;;11.12;100.00
9439;BME280;5176;42.622;25.386;2023-04-20T01:14:23;96722.66;;;10.91;100.00
9439;BME280;5176;42.622;25.386;2023-04-20T01:16:52;96731.47;;;10.90;100.00
9439;BME280;5176;42.622;25.386;2023-04-20T01:19:21;96728.94;;;10.89;100.00
9439;BME280;5176;42.622;25.386;2023-04-20T01:21:50;96721.53;;;10.83;100.00
9439;BME280;5176;42.622;25.386;2023-04-20T01:24:20;96732.56;;;10.75;100.00
9439;BME280;5176;42.622;25.386;2023-04-20T01:26:49;96725.97;;;10.70;100.00
9439;BME280;5176;42.622;25.386;2023-04-20T01:29:18;96722.97;;;10.63;100.00
9439;BME280;5176;42.622;25.386;2023-04-20T01:31:47;96720.06;;;10.55;100.00
9439;BME280;5176;42.622;25.386;2023-04-20T01:34:16;96722.69;;;10.55;100.00
9439;BME280;5176;42.622;25.386;2023-04-20T01:36:45;96726.13;;;10.55;100.00
9439;BME280;5176;42.622;25.386;2023-04-20T01:39:16;96727.09;;;10.54;100.00
9439;BME280;5176;42.622;25.386;2023-04-20T01:41:46;96722.56;;;10.56;100.00
9439;BME280;5176;42.622;25.386;2023-04-20T01:44:15;96723.63;;;10.54;100.00
9439;BME280;5176;42.622;25.386;2023-04-20T01:46:44;96728.34;;;10.49;100.00
9439;BME280;5176;42.622;25.386;2023-04-20T01:49:13;96721.81;;;10.43;100.00
9439;BME280;5176;42.622;25.386;2023-04-20T01:51:42;96720.84;;;10.44;100.00
9439;BME280;5176;42.622;25.386;2023-04-20T01:54:11;96718.44;;;10.41;100.00
9439;BME280;5176;42.622;25.386;2023-04-20T01:56:39;96718.31;;;10.43;100.00
9439;BME280;5176;42.622;25.386;2023-04-20T01:59:10;96723.47;;;10.44;100.00
9439;BME280;5176;42.622;25.386;2023-04-20T02:01:39;96711.31;;;10.43;100.00
9439;BME280;5176;42.622;25.386;2023-04-20T02:04:08;96720.34;;;10.39;100.00
9439;BME280;5176;42.622;25.386;2023-04-20T02:06:37;96713.19;;;10.41;100.00
9439;BME280;5176;42.622;25.386;2023-04-20T02:09:05;96712.66;;;10.36;100.00
9439;BME280;5176;42.622;25.386;2023-04-20T02:11:35;96709.44;;;10.32;100.00
9439;BME280;5176;42.622;25.386;2023-04-20T02:14:04;96706.59;;;10.35;100.00
9439;BME280;5176;42.622;25.386;2023-04-20T02:16:35;96703.53;;;10.42;100.00
9439;BME280;5176;42.622;25.386;2023-04-20T02:19:04;96704.69;;;10.50;100.00
9439;BME280;5176;42.622;25.386;2023-04-20T02:21:33;96706.44;;;10.50;100.00
9439;BME280;5176;42.622;25.386;2023-04-20T02:24:02;96707.31;;;10.50;100.00
9439;BME280;5176;42.622;25.386;2023-04-20T02:26:32;96704.34;;;10.55;100.00
9439;BME280;5176;42.622;25.386;2023-04-20T02:29:00;96698.25;;;10.54;100.00
9439;BME280;5176;42.622;25.386;2023-04-20T02:31:29;96699.94;;;10.55;100.00
9439;BME280;5176;42.622;25.386;2023-04-20T02:34:00;96704.97;;;10.58;100.00
9439;BME280;5176;42.622;25.386;2023-04-20T02:36:31;96705.28;;;10.54;100.00
9439;BME280;5176;42.622;25.386;2023-04-20T02:39:00;96700.28;;;10.51;100.00
9439;BME280;5176;42.622;25.386;2023-04-20T02:41:29;96701.94;;;10.52;100.00
9439;BME280;5176;42.622;25.386;2023-04-20T02:43:59;96697.75;;;10.49;100.00
9439;BME280;5176;42.622;25.386;2023-04-20T02:46:29;96697.75;;;10.49;100.00
9439;BME280;5176;42.622;25.386;2023-04-20T02:48:59;96691.69;;;10.49;100.00
9439;BME280;5176;42.622;25.386;2023-04-20T02:51:29;96702.41;;;10.46;100.00
9439;BME280;5176;42.622;25.386;2023-04-20T02:53:58;96695.59;;;10.43;100.00
9439;BME280;5176;42.622;25.386;2023-04-20T02:56:27;96700.75;;;10.32;100.00
9439;BME280;5176;42.622;25.386;2023-04-20T02:58:55;96701.47;;;10.21;100.00
9439;BME280;5176;42.622;25.386;2023-04-20T03:01:24;96697.19;;;10.20;100.00
9439;BME280;5176;42.622;25.386;2023-04-20T03:03:53;96691.78;;;10.10;100.00
9439;BME280;5176;42.622;25.386;2023-04-20T03:06:24;96695.97;;;10.00;100.00
9439;BME280;5176;42.622;25.386;2023-04-20T03:08:52;96701.34;;;9.86;100.00
9439;BME280;5176;42.622;25.386;2023-04-20T03:11:21;96695.69;;;9.92;100.00
9439;BME280;5176;42.622;25.386;2023-04-20T03:13:50;96699.72;;;9.96;100.00
9439;BME280;5176;42.622;25.386;2023-04-20T03:16:19;96699.72;;;9.96;100.00
9439;BME280;5176;42.622;25.386;2023-04-20T03:18:47;96700.25;;;10.01;100.00
9439;BME280;5176;42.622;25.386;2023-04-20T03:21:16;96706.97;;;10.05;100.00
9439;BME280;5176;42.622;25.386;2023-04-20T03:23:46;96704.03;;;10.10;100.00
9439;BME280;5176;42.622;25.386;2023-04-20T03:26:15;96712.72;;;10.10;100.00
9439;BME280;5176;42.622;25.386;2023-04-20T03:28:45;96700.06;;;10.04;100.00
9439;BME280;5176;42.622;25.386;2023-04-20T03:31:14;96709.34;;;10.08;100.00
9439;BME280;5176;42.622;25.386;2023-04-20T03:33:43;96708.88;;;10.03;100.00
9439;BME280;5176;42.622;25.386;2023-04-20T03:36:12;96712.09;;;10.07;100.00
9439;BME280;5176;42.622;25.386;2023-04-20T03:38:41;96711.03;;;10.09;100.00
9439;BME280;5176;42.622;25.386;2023-04-20T03:41:12;96715.66;;;10.06;100.00
9439;BME280;5176;42.622;25.386;2023-04-20T03:43:41;96707.69;;;10.07;100.00
9439;BME280;5176;42.622;25.386;2023-04-20T03:46:10;96708.53;;;9.95;100.00
9439;BME280;5176;42.622;25.386;2023-04-20T03:48:39;96703.66;;;9.91;100.00
9439;BME280;5176;42.622;25.386;2023-04-20T03:51:09;96702.81;;;9.90;100.00
9439;BME280;5176;42.622;25.386;2023-04-20T03:53:38;96703.31;;;9.82;100.00
9439;BME280;5176;42.622;25.386;2023-04-20T03:56:07;96699.38;;;9.77;100.00
9439;BME280;5176;42.622;25.386;2023-04-20T03:58:39;96703.84;;;9.75;100.00
9439;BME280;5176;42.622;25.386;2023-04-20T04:01:09;96702.06;;;9.75;100.00
9439;BME280;5176;42.622;25.386;2023-04-20T04:03:39;96709.31;;;9.72;100.00
9439;BME280;5176;42.622;25.386;2023-04-20T04:06:08;96706.28;;;9.78;100.00
9439;BME280;5176;42.622;25.386;2023-04-20T04:08:37;96709.84;;;9.77;100.00
9439;BME280;5176;42.622;25.386;2023-04-20T04:11:06;96714.53;;;9.72;100.00
9439;BME280;5176;42.622;25.386;2023-04-20T04:13:34;96717.28;;;9.70;100.00
9439;BME280;5176;42.622;25.386;2023-04-20T04:16:05;96718.09;;;9.71;100.00
9439;BME280;5176;42.622;25.386;2023-04-20T04:18:34;96712.13;;;9.69;100.00
9439;BME280;5176;42.622;25.386;2023-04-20T04:21:03;96713.81;;;9.70;100.00
9439;BME280;5176;42.622;25.386;2023-04-20T04:23:33;96719.66;;;9.48;100.00
9439;BME280;5176;42.622;25.386;2023-04-20T04:26:03;96716.44;;;9.44;100.00
9439;BME280;5176;42.622;25.386;2023-04-20T04:28:32;96716.63;;;9.54;100.00
9439;BME280;5176;42.622;25.386;2023-04-20T04:31:00;96718.94;;;9.59;100.00
9439;BME280;5176;42.622;25.386;2023-04-20T04:33:33;96721.25;;;9.63;100.00
9439;BME280;5176;42.622;25.386;2023-04-20T04:36:01;96719.25;;;9.67;100.00
9439;BME280;5176;42.622;25.386;2023-04-20T04:38:30;96727.00;;;9.68;100.00
9439;BME280;5176;42.622;25.386;2023-04-20T04:40:59;96717.47;;;9.67;100.00
9439;BME280;5176;42.622;25.386;2023-04-20T04:43:27;96722.50;;;9.70;100.00
9439;BME280;5176;42.622;25.386;2023-04-20T04:45:56;96715.50;;;9.58;100.00
9439;BME280;5176;42.622;25.386;2023-04-20T04:48:25;96722.09;;;9.64;100.00
9439;BME280;5176;42.622;25.386;2023-04-20T04:50:56;96720.09;;;9.80;100.00
9439;BME280;5176;42.622;25.386;2023-04-20T04:53:24;96715.44;;;9.96;100.00
9439;BME280;5176;42.622;25.386;2023-04-20T04:55:53;96720.47;;;10.12;100.00
9439;BME280;5176;42.622;25.386;2023-04-20T04:58:21;96719.66;;;10.24;100.00
9439;BME280;5176;42.622;25.386;2023-04-20T05:00:50;96726.19;;;10.43;100.00
9439;BME280;5176;42.622;25.386;2023-04-20T05:03:19;96722.56;;;10.56;100.00
9439;BME280;5176;42.622;25.386;2023-04-20T05:05:47;96725.16;;;10.69;100.00
9439;BME280;5176;42.622;25.386;2023-04-20T05:08:19;96724.63;;;10.77;100.00
9439;BME280;5176;42.622;25.386;2023-04-20T05:10:48;96710.25;;;10.70;100.00
9439;BME280;5176;42.622;25.386;2023-04-20T05:13:17;96729.56;;;10.93;100.00
9439;BME280;5176;42.622;25.386;2023-04-20T05:15:45;96736.28;;;11.08;100.00
9439;BME280;5176;42.622;25.386;2023-04-20T05:18:14;96735.97;;;11.12;100.00
9439;BME280;5176;42.622;25.386;2023-04-20T05:20:43;96738.25;;;11.17;100.00
9439;BME280;5176;42.622;25.386;2023-04-20T05:23:12;96740.19;;;11.26;100.00
9439;BME280;5176;42.622;25.386;2023-04-20T05:25:43;96735.31;;;11.33;100.00
9439;BME280;5176;42.622;25.386;2023-04-20T05:28:11;96747.28;;;11.48;100.00
9439;BME280;5176;42.622;25.386;2023-04-20T05:30:40;96745.03;;;11.55;100.00
9439;BME280;5176;42.622;25.386;2023-04-20T05:33:08;96741.81;;;11.62;100.00
9439;BME280;5176;42.622;25.386;2023-04-20T05:35:37;96746.97;;;11.75;100.00
9439;BME280;5176;42.622;25.386;2023-04-20T05:38:08;96751.47;;;11.86;100.00
9439;BME280;5176;42.622;25.386;2023-04-20T05:40:36;96751.00;;;11.92;100.00
9439;BME280;5176;42.622;25.386;2023-04-20T05:43:10;96753.59;;;12.03;99.86
9439;BME280;5176;42.622;25.386;2023-04-20T05:45:39;96751.69;;;12.16;97.95
9439;BME280;5176;42.622;25.386;2023-04-20T05:48:07;96756.25;;;12.25;93.99
9439;BME280;5176;42.622;25.386;2023-04-20T05:50:36;96757.94;;;12.38;93.73
9439;BME280;5176;42.622;25.386;2023-04-20T05:53:06;96758.38;;;12.54;91.15
9439;BME280;5176;42.622;25.386;2023-04-20T05:55:35;96752.38;;;12.63;88.82
9439;BME280;5176;42.622;25.386;2023-04-20T05:58:03;96749.16;;;12.71;87.30
9439;BME280;5176;42.622;25.386;2023-04-20T06:00:34;96755.34;;;12.81;85.12
9439;BME280;5176;42.622;25.386;2023-04-20T06:03:03;96761.63;;;13.01;85.25
9439;BME280;5176;42.622;25.386;2023-04-20T06:05:32;96760.38;;;13.16;85.48
9439;BME280;5176;42.622;25.386;2023-04-20T06:08:00;96763.84;;;13.28;83.87
9439;BME280;5176;42.622;25.386;2023-04-20T06:10:29;96762.47;;;13.45;82.23
9439;BME280;5176;42.622;25.386;2023-04-20T06:12:59;96763.84;;;13.70;82.05
9439;BME280;5176;42.622;25.386;2023-04-20T06:15:28;96758.16;;;13.85;81.35
9439;BME280;5176;42.622;25.386;2023-04-20T06:17:58;96757.53;;;14.03;78.78
9439;BME280;5176;42.622;25.386;2023-04-20T06:20:27;96757.09;;;14.28;78.48
9439;BME280;5176;42.622;25.386;2023-04-20T06:22:56;96743.38;;;14.25;74.07
9439;BME280;5176;42.622;25.386;2023-04-20T06:25:25;96752.63;;;14.50;75.21
9439;BME280;5176;42.622;25.386;2023-04-20T06:27:53;96753.00;;;14.76;74.76
9439;BME280;5176;42.622;25.386;2023-04-20T06:30:22;96723.56;;;14.90;74.18
9439;BME280;5176;42.622;25.386;2023-04-20T06:32:51;96750.84;;;15.29;72.25
9439;BME280;5176;42.622;25.386;2023-04-20T06:35:21;96742.75;;;15.50;72.23
9439;BME280;5176;42.622;25.386;2023-04-20T06:37:50;96750.69;;;15.69;69.72
9439;BME280;5176;42.622;25.386;2023-04-20T06:40:20;96755.72;;;15.72;64.23
9439;BME280;5176;42.622;25.386;2023-04-20T06:42:49;96760.13;;;15.91;64.31
9439;BME280;5176;42.622;25.386;2023-04-20T06:45:17;96755.50;;;16.13;62.14
9439;BME280;5176;42.622;25.386;2023-04-20T06:47:46;96751.66;;;16.34;62.48
9439;BME280;5176;42.622;25.386;2023-04-20T06:50:15;96753.72;;;16.41;59.13
9439;BME280;5176;42.622;25.386;2023-04-20T06:52:45;96753.63;;;16.60;58.71
9439;BME280;5176;42.622;25.386;2023-04-20T06:55:16;96751.50;;;16.73;57.35
9439;BME280;5176;42.622;25.386;2023-04-20T06:57:46;96756.56;;;16.84;54.27
9439;BME280;5176;42.622;25.386;2023-04-20T07:00:16;96761.19;;;16.82;51.57
9439;BME280;5176;42.622;25.386;2023-04-20T07:02:45;96758.28;;;17.03;52.62
9439;BME280;5176;42.622;25.386;2023-04-20T07:05:15;96759.22;;;17.12;52.21
9439;BME280;5176;42.622;25.386;2023-04-20T07:07:45;96753.06;;;17.11;50.41
9439;BME280;5176;42.622;25.386;2023-04-20T07:10:14;96755.19;;;17.26;51.53
9439;BME280;5176;42.622;25.386;2023-04-20T07:12:43;96746.78;;;17.48;52.68
9439;BME280;5176;42.622;25.386;2023-04-20T07:15:12;96750.53;;;17.63;49.81
9439;BME280;5176;42.622;25.386;2023-04-20T07:17:41;96749.03;;;17.61;49.15
9439;BME280;5176;42.622;25.386;2023-04-20T07:20:10;96753.91;;;17.65;48.05
9439;BME280;5176;42.622;25.386;2023-04-20T07:22:38;96751.75;;;17.69;48.60
9439;BME280;5176;42.622;25.386;2023-04-20T07:25:09;96752.06;;;17.66;46.91
9439;BME280;5176;42.622;25.386;2023-04-20T07:27:39;96752.75;;;17.50;47.51
9439;BME280;5176;42.622;25.386;2023-04-20T07:30:08;96759.03;;;17.67;47.61
9439;BME280;5176;42.622;25.386;2023-04-20T07:32:38;96757.19;;;17.85;46.51
9439;BME280;5176;42.622;25.386;2023-04-20T07:35:08;96753.88;;;18.09;47.60
9439;BME280;5176;42.622;25.386;2023-04-20T07:37:37;96761.00;;;18.35;47.63
9439;BME280;5176;42.622;25.386;2023-04-20T07:40:09;96754.91;;;18.42;44.77
9439;BME280;5176;42.622;25.386;2023-04-20T07:42:38;96750.13;;;18.46;44.93
9439;BME280;5176;42.622;25.386;2023-04-20T07:45:08;96746.28;;;18.66;45.14
9439;BME280;5176;42.622;25.386;2023-04-20T07:47:37;96744.31;;;18.85;44.93
9439;BME280;5176;42.622;25.386;2023-04-20T07:50:07;96750.97;;;18.89;42.90
9439;BME280;5176;42.622;25.386;2023-04-20T07:52:36;96755.78;;;18.85;44.08
9439;BME280;5176;42.622;25.386;2023-04-20T07:55:05;96750.78;;;18.82;42.96
9439;BME280;5176;42.622;25.386;2023-04-20T07:57:39;96732.03;;;18.84;42.35
9439;BME280;5176;42.622;25.386;2023-04-20T08:00:09;96739.84;;;18.51;43.10
9439;BME280;5176;42.622;25.386;2023-04-20T08:02:39;96745.53;;;18.64;43.16
9439;BME280;5176;42.622;25.386;2023-04-20T08:05:09;96739.16;;;18.75;41.76
9439;BME280;5176;42.622;25.386;2023-04-20T08:07:38;96741.00;;;18.83;43.02
9439;BME280;5176;42.622;25.386;2023-04-20T08:10:08;96743.38;;;19.02;42.36
9439;BME280;5176;42.622;25.386;2023-04-20T08:12:38;96734.13;;;19.22;42.14
9439;BME280;5176;42.622;25.386;2023-04-20T08:15:08;96731.31;;;19.48;42.65
9439;BME280;5176;42.622;25.386;2023-04-20T08:17:37;96725.19;;;19.64;40.43
9439;BME280;5176;42.622;25.386;2023-04-20T08:20:07;96734.53;;;19.68;41.40
9439;BME280;5176;42.622;25.386;2023-04-20T08:22:36;96728.38;;;19.59;40.28
9439;BME280;5176;42.622;25.386;2023-04-20T08:25:05;96733.34;;;19.63;40.27
9439;BME280;5176;42.622;25.386;2023-04-20T08:27:34;96729.69;;;19.72;40.95
9439;BME280;5176;42.622;25.386;2023-04-20T08:30:05;96714.03;;;19.85;41.90
9439;BME280;5176;42.622;25.386;2023-04-20T08:32:34;96719.38;;;19.93;40.22
9439;BME280;5176;42.622;25.386;2023-04-20T08:35:03;96716.69;;;20.01;40.78
9439;BME280;5176;42.622;25.386;2023-04-20T08:37:33;96724.84;;;20.08;41.65
9439;BME280;5176;42.622;25.386;2023-04-20T08:40:03;96717.81;;;20.23;40.88
9439;BME280;5176;42.622;25.386;2023-04-20T08:42:33;96716.44;;;20.35;40.64
9439;BME280;5176;42.622;25.386;2023-04-20T08:45:03;96719.88;;;20.52;41.80
9439;BME280;5176;42.622;25.386;2023-04-20T08:47:34;96726.03;;;20.61;40.83
9439;BME280;5176;42.622;25.386;2023-04-20T08:50:03;96729.97;;;20.73;42.60
9439;BME280;5176;42.622;25.386;2023-04-20T08:52:32;96714.84;;;20.97;41.66
9439;BME280;5176;42.622;25.386;2023-04-20T08:55:01;96722.47;;;21.00;40.18
9439;BME280;5176;42.622;25.386;2023-04-20T08:57:30;96717.25;;;20.83;40.56
9439;BME280;5176;42.622;25.386;2023-04-20T08:59:59;96718.03;;;20.92;39.79
9439;BME280;5176;42.622;25.386;2023-04-20T09:02:31;96722.66;;;20.98;39.21
9439;BME280;5176;42.622;25.386;2023-04-20T09:05:00;96720.69;;;21.00;39.54
9439;BME280;5176;42.622;25.386;2023-04-20T09:07:30;96720.25;;;21.11;40.77
9439;BME280;5176;42.622;25.386;2023-04-20T09:09:59;96720.13;;;21.05;38.22
9439;BME280;5176;42.622;25.386;2023-04-20T09:12:38;96717.41;;;20.90;38.65
9439;BME280;5176;42.622;25.386;2023-04-20T09:15:08;96722.50;;;20.68;38.11
9439;BME280;5176;42.622;25.386;2023-04-20T09:17:39;96719.66;;;20.70;38.72
9439;BME280;5176;42.622;25.386;2023-04-20T09:20:08;96727.28;;;20.81;37.90
9439;BME280;5176;42.622;25.386;2023-04-20T09:22:37;96723.34;;;21.00;38.36
9439;BME280;5176;42.622;25.386;2023-04-20T09:25:12;96711.25;;;21.12;40.03
9439;BME280;5176;42.622;25.386;2023-04-20T09:27:41;96724.81;;;21.57;38.71
9439;BME280;5176;42.622;25.386;2023-04-20T09:30:11;96728.53;;;21.70;38.33
9439;BME280;5176;42.622;25.386;2023-04-20T09:32:41;96726.34;;;21.74;36.86
9439;BME280;5176;42.622;25.386;2023-04-20T09:35:10;96723.41;;;21.84;36.28
9439;BME280;5176;42.622;25.386;2023-04-20T09:37:46;96719.72;;;21.85;37.35
9439;BME280;5176;42.622;25.386;2023-04-20T09:40:17;96723.81;;;21.95;37.93
9439;BME280;5176;42.622;25.386;2023-04-20T09:42:48;96716.88;;;22.09;36.86
9439;BME280;5176;42.622;25.386;2023-04-20T09:45:18;96720.69;;;22.07;36.22
9439;BME280;5176;42.622;25.386;2023-04-20T09:47:49;96709.13;;;21.76;35.35
9439;BME280;5176;42.622;25.386;2023-04-20T09:50:19;96714.91;;;20.88;36.26
9439;BME280;5176;42.622;25.386;2023-04-20T09:52:48;96712.09;;;20.42;36.78
9439;BME280;5176;42.622;25.386;2023-04-20T09:55:18;96705.88;;;20.66;37.91
9439;BME280;5176;42.622;25.386;2023-04-20T09:57:48;96701.59;;;21.11;39.19
9439;BME280;5176;42.622;25.386;2023-04-20T10:00:19;96703.88;;;21.22;38.45
9439;BME280;5176;42.622;25.386;2023-04-20T10:02:49;96703.84;;;21.54;37.97
9439;BME280;5176;42.622;25.386;2023-04-20T10:05:18;96705.06;;;21.66;36.21
9439;BME280;5176;42.622;25.386;2023-04-20T10:07:58;96700.16;;;21.32;37.35
9439;BME280;5176;42.622;25.386;2023-04-20T10:10:28;96695.69;;;20.70;35.06
9439;BME280;5176;42.622;25.386;2023-04-20T10:12:58;96691.31;;;20.77;37.42
9439;BME280;5176;42.622;25.386;2023-04-20T10:15:36;96698.13;;;21.11;37.26
9439;BME280;5176;42.622;25.386;2023-04-20T10:18:22;96689.28;;;20.87;38.09
9439;BME280;5176;42.622;25.386;2023-04-20T10:21:03;96683.44;;;20.61;37.93
9439;BME280;5176;42.622;25.386;2023-04-20T10:23:32;96682.31;;;20.47;37.80
9439;BME280;5176;42.622;25.386;2023-04-20T10:26:01;96691.69;;;20.19;35.46
9439;BME280;5176;42.622;25.386;2023-04-20T10:28:39;96690.69;;;20.28;38.02
9439;BME280;5176;42.622;25.386;2023-04-20T10:31:08;96684.94;;;20.55;35.54
9439;BME280;5176;42.622;25.386;2023-04-20T10:33:50;96679.75;;;20.62;37.18
9439;BME280;5176;42.622;25.386;2023-04-20T10:36:25;96684.22;;;20.70;34.05
9439;BME280;5176;42.622;25.386;2023-04-20T10:38:54;96679.66;;;20.39;37.19
9439;BME280;5176;42.622;25.386;2023-04-20T10:41:23;96676.66;;;20.50;38.42
9439;BME280;5176;42.622;25.386;2023-04-20T10:43:52;96676.19;;;20.47;38.70
9439;BME280;5176;42.622;25.386;2023-04-20T10:46:22;96678.56;;;20.17;38.23
9439;BME280;5176;42.622;25.386;2023-04-20T10:48:57;96674.47;;;19.98;38.29
9439;BME280;5176;42.622;25.386;2023-04-20T10:51:27;96682.41;;;20.14;40.28
9439;BME280;5176;42.622;25.386;2023-04-20T10:54:01;96675.31;;;20.38;38.37
9439;BME280;5176;42.622;25.386;2023-04-20T10:56:37;96671.53;;;20.72;38.79
9439;BME280;5176;42.622;25.386;2023-04-20T10:59:06;96676.66;;;21.04;39.26
9439;BME280;5176;42.622;25.386;2023-04-20T11:01:36;96677.09;;;21.16;38.13
9439;BME280;5176;42.622;25.386;2023-04-20T11:04:06;96679.06;;;21.45;39.86
9439;BME280;5176;42.622;25.386;2023-04-20T11:06:37;96684.53;;;21.66;38.37
9439;BME280;5176;42.622;25.386;2023-04-20T11:09:16;96687.13;;;21.37;38.48
9439;BME280;5176;42.622;25.386;2023-04-20T11:11:56;96690.09;;;21.42;38.64
9439;BME280;5176;42.622;25.386;2023-04-20T11:14:25;96683.47;;;21.38;38.65
9439;BME280;5176;42.622;25.386;2023-04-20T11:16:54;96678.88;;;21.46;36.64
9439;BME280;5176;42.622;25.386;2023-04-20T11:19:26;96667.88;;;21.49;37.63
9439;BME280;5176;42.622;25.386;2023-04-20T11:21:55;96679.06;;;21.83;38.27
9439;BME280;5176;42.622;25.386;2023-04-20T11:24:26;96677.75;;;21.79;37.07
9439;BME280;5176;42.622;25.386;2023-04-20T11:26:55;96678.47;;;21.72;38.45
9439;BME280;5176;42.622;25.386;2023-04-20T11:29:27;96668.09;;;21.63;37.23
9439;BME280;5176;42.622;25.386;2023-04-20T11:31:56;96671.50;;;21.34;38.75
9439;BME280;5176;42.622;25.386;2023-04-20T11:34:26;96671.78;;;21.39;37.90
9439;BME280;5176;42.622;25.386;2023-04-20T11:36:55;96665.22;;;21.64;38.98
9439;BME280;5176;42.622;25.386;2023-04-20T11:39:26;96671.34;;;21.88;37.73
9439;BME280;5176;42.622;25.386;2023-04-20T11:41:55;96666.47;;;21.91;37.80
9439;BME280;5176;42.622;25.386;2023-04-20T11:44:25;96661.84;;;21.70;38.53
9439;BME280;5176;42.622;25.386;2023-04-20T11:46:54;96655.75;;;21.47;39.67
9439;BME280;5176;42.622;25.386;2023-04-20T11:49:27;96669.94;;;21.39;40.13
9439;BME280;5176;42.622;25.386;2023-04-20T11:51:56;96661.75;;;20.95;39.48
9439;BME280;5176;42.622;25.386;2023-04-20T11:54:24;96658.13;;;20.88;39.80
9439;BME280;5176;42.622;25.386;2023-04-20T11:56:54;96653.09;;;20.93;40.48
9439;BME280;5176;42.622;25.386;2023-04-20T11:59:23;96648.88;;;21.07;39.90
9439;BME280;5176;42.622;25.386;2023-04-20T12:01:51;96648.97;;;21.13;40.90
9439;BME280;5176;42.622;25.386;2023-04-20T12:04:20;96649.63;;;21.15;40.88
9439;BME280;5176;42.622;25.386;2023-04-20T12:06:50;96654.31;;;21.13;40.01
9439;BME280;5176;42.622;25.386;2023-04-20T12:09:19;96649.81;;;21.14;39.27
9439;BME280;5176;42.622;25.386;2023-04-20T12:11:47;96662.00;;;21.31;39.97
9439;BME280;5176;42.622;25.386;2023-04-20T12:14:16;96658.19;;;21.34;39.10
9439;BME280;5176;42.622;25.386;2023-04-20T12:16:45;96659.28;;;21.39;39.82
9439;BME280;5176;42.622;25.386;2023-04-20T12:19:14;96649.69;;;21.30;40.09
9439;BME280;5176;42.622;25.386;2023-04-20T12:21:43;96647.06;;;21.22;39.71
9439;BME280;5176;42.622;25.386;2023-04-20T12:24:14;96645.81;;;21.10;39.97
9439;BME280;5176;42.622;25.386;2023-04-20T12:26:43;96638.88;;;21.23;40.12
9439;BME280;5176;42.622;25.386;2023-04-20T12:29:12;96646.78;;;21.17;40.69
9439;BME280;5176;42.622;25.386;2023-04-20T12:31:40;96635.59;;;21.21;39.68
9439;BME280;5176;42.622;25.386;2023-04-20T12:34:09;96639.50;;;21.11;40.02
9439;BME280;5176;42.622;25.386;2023-04-20T12:36:37;96634.66;;;21.14;40.45
9439;BME280;5176;42.622;25.386;2023-04-20T12:39:06;96633.75;;;20.99;40.88
9439;BME280;5176;42.622;25.386;2023-04-20T12:41:40;96626.13;;;20.96;40.17
9439;BME280;5176;42.622;25.386;2023-04-20T12:44:09;96620.41;;;20.99;40.18
9439;BME280;5176;42.622;25.386;2023-04-20T12:46:39;96618.88;;;20.82;39.00
9439;BME280;5176;42.622;25.386;2023-04-20T12:49:08;96624.09;;;20.75;38.87
9439;BME280;5176;42.622;25.386;2023-04-20T12:51:37;96622.31;;;20.67;39.41
9439;BME280;5176;42.622;25.386;2023-04-20T12:54:06;96614.91;;;20.78;37.50
9439;BME280;5176;42.622;25.386;2023-04-20T12:56:35;96625.63;;;20.92;37.20
9439;BME280;5176;42.622;25.386;2023-04-20T12:59:05;96621.25;;;21.00;36.51
9439;BME280;5176;42.622;25.386;2023-04-20T13:01:34;96607.41;;;21.04;36.15
9439;BME280;5176;42.622;25.386;2023-04-20T13:04:02;96620.53;;;21.06;36.51
9439;BME280;5176;42.622;25.386;2023-04-20T13:06:31;96609.13;;;20.97;36.61
9439;BME280;5176;42.622;25.386;2023-04-20T13:09:00;96613.88;;;21.25;36.32
9439;BME280;5176;42.622;25.386;2023-04-20T13:11:29;96607.16;;;21.37;37.73
9439;BME280;5176;42.622;25.386;2023-04-20T13:13:58;96608.25;;;21.19;36.75
9439;BME280;5176;42.622;25.386;2023-04-20T13:16:29;96611.91;;;21.27;36.90
9439;BME280;5176;42.622;25.386;2023-04-20T13:18:58;96606.16;;;21.38;37.37
9439;BME280;5176;42.622;25.386;2023-04-20T13:21:27;96585.66;;;21.15;36.40